Malpas, United Kingdom
Current Conditions -  °F | °C
As of 6:50 PM on Friday 24 Oct 2014 (Local Time) from EGNR Reporting Station
Few Clouds Few Clouds  
Wind Chill: 52°   Ceiling: Unl
Heat Index: 52°   Visibility: 6mi
Dew Point: 45°   Wind: 2mph
Humidity: 76%   Direction: NA
Pressure: 29.88"   Gusts: NA
Location:  53.02°N, 2.78°W
Report Text: EGNR 241750Z VRB02KT 9999 FEW035 11/07 Q1012
Loading
Personal Weather Stations






























Interactive Weather Map
Tropical Storm Tracking
New forecast layout! Learn more

10-Day Weather Forecast

Advertisements
Track Severe Weather on mobile